createdAt,value
2018-05-08T00:01:31.473Z,14.20
2018-05-08T00:03:59.149Z,14.30
2018-05-08T00:06:26.745Z,14.40
2018-05-08T00:08:54.353Z,14.40
2018-05-08T00:11:21.935Z,14.30
2018-05-08T00:13:50.274Z,14.30
2018-05-08T00:16:18.186Z,14.20
2018-05-08T00:18:46.521Z,14.40
2018-05-08T00:21:14.077Z,14.30
2018-05-08T00:23:41.632Z,14.40
2018-05-08T00:26:09.952Z,14.50
2018-05-08T00:28:37.503Z,14.40
2018-05-08T00:31:05.139Z,14.40
2018-05-08T00:33:32.757Z,14.40
2018-05-08T00:36:00.310Z,14.30
2018-05-08T00:38:28.646Z,14.30
2018-05-08T00:40:56.261Z,14.30
2018-05-08T00:43:23.857Z,14.40
2018-05-08T00:45:51.432Z,14.50
2018-05-08T00:48:19.068Z,14.40
2018-05-08T00:50:46.649Z,14.40
2018-05-08T00:53:14.239Z,14.30
2018-05-08T00:55:42.674Z,14.30
2018-05-08T00:58:10.269Z,14.30
2018-05-08T01:00:37.825Z,14.30
2018-05-08T01:03:05.400Z,14.20
2018-05-08T01:05:32.977Z,14.10
2018-05-08T01:08:00.612Z,14.00
2018-05-08T01:10:28.247Z,13.90
2018-05-08T01:12:55.858Z,13.90
2018-05-08T01:15:23.489Z,13.80
2018-05-08T01:17:51.094Z,13.70
2018-05-08T01:20:19.449Z,13.60
2018-05-08T01:22:47.105Z,13.60
2018-05-08T01:25:14.680Z,13.50
2018-05-08T01:27:42.340Z,13.50
2018-05-08T01:30:09.995Z,13.40
2018-05-08T01:32:37.547Z,13.40
2018-05-08T01:35:05.860Z,13.30
2018-05-08T01:37:33.677Z,13.30
2018-05-08T01:40:01.354Z,13.30
2018-05-08T01:42:28.937Z,13.20
2018-05-08T01:44:56.584Z,13.10
2018-05-08T01:47:24.179Z,13.00
2018-05-08T01:49:51.836Z,13.00
2018-05-08T01:52:19.492Z,13.00
2018-05-08T01:54:47.326Z,13.00
2018-05-08T01:57:14.942Z,13.00
2018-05-08T01:59:42.540Z,13.00
2018-05-08T02:02:10.152Z,12.90
2018-05-08T02:04:37.708Z,12.80
2018-05-08T02:07:05.284Z,12.80
2018-05-08T02:09:32.907Z,12.70
2018-05-08T02:12:00.495Z,12.70
2018-05-08T02:14:28.319Z,12.60
2018-05-08T02:16:55.917Z,12.60
2018-05-08T02:19:23.573Z,12.50
2018-05-08T02:21:51.951Z,12.50
2018-05-08T02:24:19.533Z,12.40
2018-05-08T02:26:48.028Z,12.40
2018-05-08T02:29:16.364Z,12.40
2018-05-08T02:31:43.979Z,12.40
2018-05-08T02:34:11.615Z,12.30
2018-05-08T02:36:39.214Z,12.20
2018-05-08T02:39:06.897Z,12.30
2018-05-08T02:41:34.441Z,12.10
2018-05-08T02:44:02.134Z,12.00
2018-05-08T02:46:30.492Z,11.80
2018-05-08T02:48:58.068Z,11.80
2018-05-08T02:51:25.723Z,11.70
2018-05-08T02:53:53.309Z,11.70
2018-05-08T02:56:20.914Z,11.60
2018-05-08T02:58:48.509Z,11.60
2018-05-08T03:01:16.113Z,11.50
2018-05-08T03:03:43.703Z,11.50
2018-05-08T03:06:11.296Z,11.50
2018-05-08T03:08:38.911Z,11.50
2018-05-08T03:11:06.487Z,11.50
2018-05-08T03:13:34.823Z,11.30
2018-05-08T03:16:02.478Z,11.30
2018-05-08T03:18:30.113Z,11.40
2018-05-08T03:20:57.748Z,11.30
2018-05-08T03:23:25.803Z,11.30
2018-05-08T03:25:53.441Z,11.20
2018-05-08T03:28:21.066Z,11.30
2018-05-08T03:30:48.650Z,11.20
2018-05-08T03:33:16.499Z,11.10
2018-05-08T03:35:45.001Z,11.10
2018-05-08T03:38:12.811Z,11.10
2018-05-08T03:40:43.675Z,11.10
2018-05-08T03:43:12.524Z,11.10
2018-05-08T03:50:59.391Z,11.00
2018-05-08T03:53:37.351Z,11.00
2018-05-08T04:55:44.101Z,11.00
2018-05-08T04:58:22.997Z,12.60
2018-05-08T05:00:56.782Z,12.60
2018-05-08T05:03:24.453Z,12.80
2018-05-08T05:05:52.230Z,13.20
2018-05-08T05:08:20.929Z,13.50
2018-05-08T05:10:50.862Z,13.90
2018-05-08T05:16:06.524Z,20.30
2018-05-08T05:18:35.033Z,23.60
2018-05-08T05:21:03.269Z,25.50
2018-05-08T05:23:31.843Z,27.30
2018-05-08T05:26:00.461Z,28.60
2018-05-08T05:28:28.547Z,29.60
2018-05-08T05:30:56.734Z,30.80
2018-05-08T05:33:24.807Z,31.50
2018-05-08T05:35:52.937Z,32.20
2018-05-08T05:38:20.554Z,33.00
2018-05-08T05:40:48.991Z,34.10
2018-05-08T05:43:17.002Z,34.10
2018-05-08T05:45:44.830Z,34.20
2018-05-08T05:48:12.518Z,33.60
2018-05-08T05:50:41.021Z,34.20
2018-05-08T05:53:14.704Z,34.90
2018-05-08T05:55:45.901Z,35.00
2018-05-08T05:58:13.719Z,35.00
2018-05-08T06:00:41.734Z,36.20
2018-05-08T06:03:42.320Z,36.60
2018-05-08T06:06:09.993Z,36.20
2018-05-08T06:08:37.750Z,36.00
2018-05-08T06:11:06.836Z,37.00
2018-05-08T06:13:39.024Z,37.80
2018-05-08T06:16:06.650Z,37.70
2018-05-08T06:18:34.238Z,37.50
2018-05-08T06:21:02.155Z,36.80
2018-05-08T06:23:31.306Z,37.70
2018-05-08T06:25:58.862Z,38.10
2018-05-08T06:28:26.921Z,37.50
2018-05-08T06:30:54.524Z,37.30
2018-05-08T06:33:23.555Z,36.00
2018-05-08T06:36:01.617Z,37.20
2018-05-08T06:38:29.497Z,37.20
2018-05-08T06:40:57.148Z,38.40
2018-05-08T06:43:24.761Z,37.90
2018-05-08T06:45:52.439Z,38.30
2018-05-08T06:48:20.113Z,39.80
2018-05-08T06:50:47.771Z,40.00
2018-05-08T06:53:15.752Z,40.20
2018-05-08T06:55:43.305Z,39.50
2018-05-08T06:58:11.756Z,38.80
2018-05-08T07:00:39.577Z,38.80
2018-05-08T07:03:07.971Z,38.80
2018-05-08T07:05:36.333Z,37.00
2018-05-08T07:08:14.161Z,37.00
2018-05-08T07:10:41.734Z,37.00
2018-05-08T07:13:10.253Z,37.50
2018-05-08T07:15:38.865Z,38.80
2018-05-08T07:18:06.742Z,38.70
2018-05-08T07:20:34.277Z,37.70
2018-05-08T07:23:02.598Z,39.50
2018-05-08T07:25:31.728Z,40.40
2018-05-08T07:27:59.316Z,39.70
2018-05-08T07:30:27.057Z,39.70
2018-05-08T07:32:56.153Z,39.10
2018-05-08T07:35:24.437Z,38.50
2018-05-08T07:37:52.789Z,37.80
2018-05-08T07:40:20.519Z,37.70
2018-05-08T07:42:48.076Z,36.50
2018-05-08T07:45:16.689Z,37.30
2018-05-08T07:47:44.463Z,37.30
2018-05-08T07:50:12.401Z,37.50
2018-05-08T07:52:40.429Z,37.30
2018-05-08T07:55:08.295Z,39.30
2018-05-08T07:57:36.867Z,37.00
2018-05-08T08:00:04.850Z,37.00
2018-05-08T08:02:32.428Z,36.60
2018-05-08T08:05:00.170Z,37.00
2018-05-08T08:07:27.836Z,37.10
2018-05-08T08:09:56.120Z,35.00
2018-05-08T08:12:23.837Z,35.00
2018-05-08T08:15:01.434Z,35.70
2018-05-08T08:17:28.995Z,34.00
2018-05-08T08:19:56.562Z,34.80
2018-05-08T08:22:24.208Z,34.90
2018-05-08T08:24:51.782Z,35.00
2018-05-08T08:27:19.391Z,34.80
2018-05-08T08:29:46.949Z,36.00
2018-05-08T08:32:14.622Z,36.70
2018-05-08T08:34:42.298Z,36.30
2018-05-08T08:37:09.893Z,36.10
2018-05-08T08:39:37.569Z,36.80
2018-05-08T08:42:05.204Z,36.60
2018-05-08T08:44:32.744Z,38.80
2018-05-08T08:47:01.075Z,36.00
2018-05-08T08:49:28.670Z,35.90
2018-05-08T08:51:56.482Z,36.20
2018-05-08T08:54:25.125Z,35.50
2018-05-08T08:56:52.721Z,35.50
2018-05-08T08:59:20.248Z,35.30
2018-05-08T09:01:47.784Z,35.40
2018-05-08T09:04:16.255Z,35.10
2018-05-08T09:06:43.820Z,35.10
2018-05-08T09:09:11.416Z,35.40
2018-05-08T09:11:39.008Z,36.70
2018-05-08T09:14:07.447Z,36.80
2018-05-08T09:16:36.101Z,36.80
2018-05-08T09:19:05.204Z,37.00
2018-05-08T09:21:32.853Z,38.00
2018-05-08T09:24:00.737Z,37.80
2018-05-08T09:26:28.393Z,37.00
2018-05-08T09:28:56.281Z,37.10
2018-05-08T09:31:27.493Z,37.30
2018-05-08T09:33:55.267Z,37.30
2018-05-08T09:36:22.893Z,36.10
2018-05-08T09:38:51.108Z,35.80
2018-05-08T09:41:20.613Z,33.90
2018-05-08T09:43:48.226Z,32.90
2018-05-08T09:46:15.732Z,31.80
2018-05-08T09:48:43.297Z,31.00
2018-05-08T09:51:13.809Z,29.90
2018-05-08T09:53:41.588Z,29.00
2018-05-08T09:56:09.351Z,28.90
2018-05-08T09:58:37.961Z,28.50
2018-05-08T10:01:05.610Z,28.50
2018-05-08T10:03:33.920Z,28.90
2018-05-08T10:06:02.464Z,29.10
2018-05-08T10:08:30.007Z,29.10
2018-05-08T10:10:57.588Z,28.30
2018-05-08T10:13:25.158Z,28.10
2018-05-08T10:15:52.716Z,27.90
2018-05-08T10:18:21.633Z,28.00
2018-05-08T10:20:49.204Z,27.90
2018-05-08T10:23:16.710Z,28.30
2018-05-08T10:25:44.346Z,27.30
2018-05-08T10:28:12.140Z,27.80
2018-05-08T10:30:39.676Z,27.70
2018-05-08T10:33:07.297Z,27.10
2018-05-08T10:35:35.510Z,27.40
2018-05-08T10:38:03.237Z,27.30
2018-05-08T10:40:30.764Z,27.00
2018-05-08T10:42:58.564Z,27.20
2018-05-08T10:45:26.159Z,27.50
2018-05-08T10:47:53.725Z,27.70
2018-05-08T10:50:21.281Z,27.40
2018-05-08T10:52:49.204Z,27.40
2018-05-08T10:55:17.825Z,27.50
2018-05-08T10:57:45.470Z,27.50
2018-05-08T11:00:12.990Z,27.50
2018-05-08T11:02:42.048Z,27.00
2018-05-08T11:05:13.084Z,27.10
2018-05-08T11:07:40.585Z,27.20
2018-05-08T11:10:08.440Z,27.30
2018-05-08T11:12:36.046Z,27.50
2018-05-08T11:15:03.596Z,27.50
2018-05-08T11:17:31.496Z,27.50
2018-05-08T11:19:59.157Z,27.40
2018-05-08T11:22:26.892Z,27.10
2018-05-08T11:24:54.708Z,26.90
2018-05-08T11:27:32.647Z,27.10
2018-05-08T11:30:00.364Z,27.20
2018-05-08T11:32:27.912Z,27.30
2018-05-08T11:34:56.249Z,27.00
2018-05-08T11:37:25.116Z,27.00
2018-05-08T11:42:58.873Z,27.20
2018-05-08T11:45:27.460Z,27.20
2018-05-08T11:47:56.890Z,27.00
2018-05-08T11:50:25.044Z,27.00
2018-05-08T11:52:52.710Z,27.20
2018-05-08T11:55:20.325Z,27.20
2018-05-08T11:57:48.649Z,27.20
2018-05-08T12:00:16.267Z,27.20
2018-05-08T12:02:44.980Z,27.00
2018-05-08T12:05:13.537Z,27.00
2018-05-08T12:07:41.156Z,27.00
2018-05-08T12:10:09.455Z,27.40
2018-05-08T12:12:37.622Z,27.40
2018-05-08T12:15:06.101Z,27.40
2018-05-08T12:17:34.494Z,27.70
2018-05-08T12:20:02.010Z,27.70
2018-05-08T12:22:44.102Z,27.40
2018-05-08T12:25:11.702Z,27.40
2018-05-08T12:27:39.225Z,27.50
2018-05-08T12:30:06.742Z,27.50
2018-05-08T12:32:37.520Z,27.70
2018-05-08T12:35:06.549Z,27.60
2018-05-08T12:37:34.338Z,27.50
2018-05-08T12:40:03.033Z,27.70
2018-05-08T12:42:31.369Z,27.70
2018-05-08T12:44:59.175Z,27.70
2018-05-08T12:47:26.713Z,27.40
2018-05-08T12:49:54.295Z,27.50
2018-05-08T12:52:21.855Z,27.70
2018-05-08T12:54:49.757Z,27.90
2018-05-08T12:57:17.692Z,28.00
2018-05-08T12:59:46.018Z,27.80
2018-05-08T13:02:13.593Z,27.80
2018-05-08T13:04:41.109Z,28.10
2018-05-08T13:07:09.264Z,28.30
2018-05-08T13:09:36.793Z,28.10
2018-05-08T13:12:05.341Z,28.10
2018-05-08T13:14:33.160Z,28.10
2018-05-08T13:17:01.813Z,28.10
2018-05-08T13:19:30.237Z,28.00
2018-05-08T13:21:57.775Z,28.00
2018-05-08T13:24:25.783Z,28.00
2018-05-08T13:26:53.570Z,27.90
2018-05-08T13:29:21.926Z,28.00
2018-05-08T13:31:49.500Z,27.90
2018-05-08T13:34:17.337Z,28.10
2018-05-08T13:36:44.893Z,28.10
2018-05-08T13:39:12.371Z,28.10
2018-05-08T13:41:40.673Z,28.10
2018-05-08T13:44:08.341Z,28.10
2018-05-08T13:46:36.100Z,27.90
2018-05-08T13:49:04.489Z,27.80
2018-05-08T13:51:32.751Z,28.00
2018-05-08T13:54:00.360Z,27.90
2018-05-08T13:56:28.694Z,27.80
2018-05-08T13:58:56.228Z,27.80
2018-05-08T14:01:24.557Z,28.00
2018-05-08T14:03:52.118Z,28.00
2018-05-08T14:06:19.642Z,27.90
2018-05-08T14:08:47.695Z,27.80
2018-05-08T14:11:15.206Z,28.10
2018-05-08T14:13:43.519Z,28.20
2018-05-08T14:16:11.181Z,28.20
2018-05-08T14:18:38.765Z,28.10
2018-05-08T14:21:06.290Z,27.90
2018-05-08T14:23:33.850Z,27.80
2018-05-08T14:26:01.449Z,27.90
2018-05-08T14:28:30.214Z,27.90
2018-05-08T14:30:58.334Z,27.90
2018-05-08T14:33:26.555Z,27.70
2018-05-08T14:35:54.116Z,27.70
2018-05-08T14:38:22.408Z,27.90
2018-05-08T14:40:50.697Z,28.00
2018-05-08T14:43:19.872Z,28.00
2018-05-08T14:45:47.431Z,28.00
2018-05-08T14:48:15.022Z,27.70
2018-05-08T14:50:43.606Z,27.60
2018-05-08T14:53:11.197Z,27.60
2018-05-08T14:55:39.564Z,27.90
2018-05-08T14:58:07.089Z,27.90
2018-05-08T15:00:34.689Z,27.90
2018-05-08T15:03:02.197Z,27.80
2018-05-08T15:05:29.805Z,27.70
2018-05-08T15:07:57.377Z,27.60
2018-05-08T15:10:25.130Z,27.60
2018-05-08T15:12:52.728Z,27.70
2018-05-08T15:15:20.252Z,27.70
2018-05-08T15:17:47.744Z,27.70
2018-05-08T15:20:15.548Z,27.60
2018-05-08T15:22:43.146Z,27.70
2018-05-08T15:25:11.710Z,27.80
2018-05-08T15:27:39.977Z,27.50
2018-05-08T15:30:07.572Z,27.50
2018-05-08T15:32:36.994Z,27.70
2018-05-08T15:35:04.637Z,27.70
2018-05-08T15:37:33.660Z,27.50
2018-05-08T15:40:02.334Z,27.50
2018-05-08T15:42:30.288Z,27.50
2018-05-08T15:45:07.903Z,27.40
2018-05-08T15:50:11.307Z,27.30
2018-05-08T15:52:38.828Z,27.40
2018-05-08T15:55:06.390Z,27.50
2018-05-08T15:57:33.952Z,27.50
2018-05-08T16:00:01.464Z,27.50
2018-05-08T16:02:29.039Z,27.40
2018-05-08T16:04:57.356Z,27.30
2018-05-08T16:07:24.888Z,27.30
2018-05-08T16:09:52.388Z,27.30
2018-05-08T16:12:20.712Z,27.20
2018-05-08T16:14:48.230Z,27.20
2018-05-08T16:17:15.754Z,27.20
2018-05-08T16:19:43.269Z,27.20
2018-05-08T16:22:10.855Z,27.30
2018-05-08T16:24:39.211Z,27.20
2018-05-08T16:27:06.833Z,27.20
2018-05-08T16:29:34.362Z,27.20
2018-05-08T16:32:01.927Z,27.10
2018-05-08T16:34:29.442Z,27.00
2018-05-08T16:36:57.770Z,26.90
2018-05-08T16:39:25.405Z,26.90
2018-05-08T16:41:52.888Z,26.90
2018-05-08T16:44:20.495Z,26.90
2018-05-08T16:46:48.026Z,26.80
2018-05-08T16:49:15.530Z,26.80
2018-05-08T16:51:43.143Z,26.80
2018-05-08T16:54:10.684Z,26.70
2018-05-08T16:56:38.211Z,26.70
2018-05-08T16:59:05.790Z,26.70
2018-05-08T17:01:33.321Z,26.70
2018-05-08T17:04:01.041Z,26.60
2018-05-08T17:06:29.104Z,26.50
2018-05-08T17:08:56.665Z,26.50
2018-05-08T17:11:25.168Z,26.40
2018-05-08T17:13:53.465Z,26.40
2018-05-08T17:16:21.026Z,26.40
2018-05-08T17:18:49.540Z,26.30
2018-05-08T17:21:17.350Z,26.30
2018-05-08T17:23:44.864Z,26.30
2018-05-08T17:26:12.488Z,26.20
2018-05-08T17:28:40.037Z,26.10
2018-05-08T17:31:07.573Z,26.10
2018-05-08T17:33:45.879Z,26.10
2018-05-08T17:36:13.608Z,26.00
2018-05-08T17:38:41.488Z,26.00
2018-05-08T17:41:09.079Z,25.90
2018-05-08T17:43:36.636Z,25.80
2018-05-08T17:46:04.129Z,25.60
2018-05-08T17:48:32.602Z,25.60
2018-05-08T17:51:00.145Z,25.40
2018-05-08T17:53:27.743Z,25.40
2018-05-08T17:55:55.272Z,25.50
2018-05-08T17:58:23.079Z,25.40
2018-05-08T18:00:51.637Z,25.30
2018-05-08T18:03:19.464Z,25.30
2018-05-08T18:05:47.201Z,25.20
2018-05-08T18:08:15.568Z,25.00
2018-05-08T18:10:43.277Z,25.00
2018-05-08T18:13:10.875Z,24.90
2018-05-08T18:15:40.271Z,24.70
2018-05-08T18:18:08.664Z,24.50
2018-05-08T18:20:36.323Z,24.50
2018-05-08T18:23:13.008Z,24.40
2018-05-08T18:25:40.679Z,24.20
2018-05-08T18:28:10.487Z,24.00
2018-05-08T18:30:39.464Z,23.80
2018-05-08T18:33:07.285Z,23.60
2018-05-08T18:35:34.980Z,23.50
2018-05-08T18:38:02.552Z,23.30
2018-05-08T18:40:30.202Z,23.00
2018-05-08T18:42:57.908Z,22.70
2018-05-08T18:45:25.466Z,22.40
2018-05-08T18:47:53.090Z,22.20
2018-05-08T18:50:20.648Z,21.90
2018-05-08T18:52:48.283Z,21.70
2018-05-08T18:55:15.963Z,21.60
2018-05-08T18:57:43.556Z,21.40
2018-05-08T19:00:16.793Z,21.20
2018-05-08T19:02:44.399Z,21.00
2018-05-08T19:05:12.089Z,20.90
2018-05-08T19:07:39.695Z,20.80
2018-05-08T19:10:08.051Z,20.40
2018-05-08T19:12:35.765Z,20.40
2018-05-08T19:15:10.797Z,20.10
2018-05-08T19:17:39.100Z,19.90
2018-05-08T19:20:07.444Z,19.80
2018-05-08T19:22:35.762Z,19.80
2018-05-08T19:25:03.419Z,19.70
2018-05-08T19:27:31.086Z,19.60
2018-05-08T19:30:04.483Z,19.50
2018-05-08T19:32:32.054Z,19.50
2018-05-08T19:35:05.267Z,19.40
2018-05-08T19:40:38.496Z,19.20
2018-05-08T19:43:06.091Z,19.10
2018-05-08T19:45:33.669Z,19.00
2018-05-08T19:48:01.222Z,18.80
2018-05-08T19:50:28.771Z,18.70
2018-05-08T19:52:56.313Z,18.70
2018-05-08T19:55:24.621Z,18.50
2018-05-08T19:57:52.220Z,18.50
2018-05-08T20:00:19.764Z,18.40
2018-05-08T20:02:47.332Z,18.40
2018-05-08T20:05:14.867Z,18.30
2018-05-08T20:07:42.425Z,18.20
2018-05-08T20:10:09.959Z,18.10
2018-05-08T20:12:37.548Z,18.10
2018-05-08T20:15:05.097Z,18.00
2018-05-08T20:17:32.652Z,17.90
2018-05-08T20:20:00.953Z,17.80
2018-05-08T20:22:28.503Z,17.80
2018-05-08T20:24:56.038Z,17.80
2018-05-08T20:27:23.612Z,17.80
2018-05-08T20:29:51.153Z,17.70
2018-05-08T20:32:18.745Z,17.70
2018-05-08T20:34:46.308Z,17.70
2018-05-08T20:37:13.872Z,17.50
2018-05-08T20:39:41.425Z,17.50
2018-05-08T20:42:09.765Z,17.40
2018-05-08T20:44:37.319Z,17.40
2018-05-08T20:47:04.899Z,17.40
2018-05-08T20:49:32.492Z,17.40
2018-05-08T20:52:00.044Z,17.30
2018-05-08T20:54:27.623Z,17.30
2018-05-08T20:56:55.198Z,17.30
2018-05-08T20:59:22.777Z,17.20
2018-05-08T21:01:50.353Z,17.20
2018-05-08T21:04:17.892Z,17.10
2018-05-08T21:06:45.440Z,17.10
2018-05-08T21:09:13.060Z,17.20
2018-05-08T21:11:40.579Z,17.10
2018-05-08T21:14:08.968Z,17.00
2018-05-08T21:16:37.306Z,16.90
2018-05-08T21:19:04.877Z,16.90
2018-05-08T21:21:32.493Z,16.90
2018-05-08T21:24:00.029Z,16.80
2018-05-08T21:26:37.455Z,16.70
2018-05-08T21:29:04.999Z,16.70
2018-05-08T21:31:32.535Z,16.70
2018-05-08T21:34:00.075Z,16.60
2018-05-08T21:36:27.645Z,16.60
2018-05-08T21:38:55.224Z,16.60
2018-05-08T21:41:22.796Z,16.50
2018-05-08T21:43:50.353Z,16.40
2018-05-08T21:46:17.892Z,16.50
2018-05-08T21:48:45.464Z,16.50
2018-05-08T21:51:13.000Z,16.40
2018-05-08T21:53:40.556Z,16.40
2018-05-08T21:56:08.110Z,16.40
2018-05-08T21:58:35.702Z,16.30
2018-05-08T22:01:03.261Z,16.30
2018-05-08T22:03:30.815Z,16.40
2018-05-08T22:05:58.373Z,16.30
2018-05-08T22:08:25.917Z,16.40
2018-05-08T22:10:53.432Z,16.30
2018-05-08T22:13:21.011Z,16.20
2018-05-08T22:15:48.555Z,16.20
2018-05-08T22:18:16.128Z,16.20
2018-05-08T22:20:43.709Z,16.20
2018-05-08T22:23:11.256Z,16.20
2018-05-08T22:25:38.802Z,16.10
2018-05-08T22:28:07.164Z,16.10
2018-05-08T22:30:34.743Z,16.10
2018-05-08T22:33:02.321Z,16.20
2018-05-08T22:35:29.877Z,16.10
2018-05-08T22:37:57.452Z,16.10
2018-05-08T22:40:24.976Z,16.00
2018-05-08T22:42:52.531Z,15.90
2018-05-08T22:45:20.879Z,16.00
2018-05-08T22:47:48.475Z,16.00
2018-05-08T22:50:16.029Z,15.90
2018-05-08T22:52:43.545Z,16.00
2018-05-08T22:55:11.901Z,15.90
2018-05-08T22:57:39.479Z,15.80
2018-05-08T23:00:07.016Z,16.10
2018-05-08T23:02:34.597Z,16.10
2018-05-08T23:05:02.204Z,16.30
2018-05-08T23:07:29.758Z,16.10
2018-05-08T23:09:57.335Z,16.10
2018-05-08T23:12:26.870Z,16.10
2018-05-08T23:14:54.430Z,16.00
2018-05-08T23:17:22.773Z,16.10
2018-05-08T23:19:50.356Z,16.10
2018-05-08T23:22:17.912Z,16.00
2018-05-08T23:24:45.527Z,16.10
2018-05-08T23:27:13.102Z,16.00
2018-05-08T23:29:40.677Z,16.10
2018-05-08T23:32:08.233Z,16.00
2018-05-08T23:34:35.850Z,16.20
2018-05-08T23:37:04.185Z,16.00
2018-05-08T23:39:31.780Z,16.00
2018-05-08T23:41:59.302Z,16.00
2018-05-08T23:44:26.851Z,15.90
2018-05-08T23:46:54.447Z,15.80
2018-05-08T23:49:22.042Z,15.70
2018-05-08T23:51:49.603Z,15.60
2018-05-08T23:54:17.135Z,15.50
2018-05-08T23:56:44.729Z,15.50
2018-05-08T23:59:13.033Z,15.40
